sensor_id;sensor_type;location;lat;lon;timestamp;P1;durP1;ratioP1;P2;durP2;ratioP2
20910;SDS011;10615;42.702;23.314;2023-05-19T00:00:32;6.63;;;5.90;;
20910;SDS011;10615;42.702;23.314;2023-05-19T00:01:36;7.80;;;5.82;;
20910;SDS011;10615;42.702;23.314;2023-05-19T00:02:37;6.75;;;6.03;;
20910;SDS011;10615;42.702;23.314;2023-05-19T00:03:40;11.32;;;8.18;;
20910;SDS011;10615;42.702;23.314;2023-05-19T00:04:51;9.40;;;6.72;;
20910;SDS011;10615;42.702;23.314;2023-05-19T00:05:52;9.38;;;6.68;;
20910;SDS011;10615;42.702;23.314;2023-05-19T00:06:53;7.18;;;6.30;;
20910;SDS011;10615;42.702;23.314;2023-05-19T00:07:54;9.23;;;6.50;;
20910;SDS011;10615;42.702;23.314;2023-05-19T00:08:59;9.07;;;6.43;;
20910;SDS011;10615;42.702;23.314;2023-05-19T00:10:01;8.38;;;6.07;;
20910;SDS011;10615;42.702;23.314;2023-05-19T00:11:02;8.52;;;6.03;;
20910;SDS011;10615;42.702;23.314;2023-05-19T00:12:03;7.50;;;5.88;;
20910;SDS011;10615;42.702;23.314;2023-05-19T00:13:04;7.00;;;5.55;;
20910;SDS011;10615;42.702;23.314;2023-05-19T00:14:06;10.23;;;6.20;;
20910;SDS011;10615;42.702;23.314;2023-05-19T00:15:08;7.03;;;6.07;;
20910;SDS011;10615;42.702;23.314;2023-05-19T00:16:10;7.60;;;6.00;;
20910;SDS011;10615;42.702;23.314;2023-05-19T00:17:11;7.00;;;5.60;;
20910;SDS011;10615;42.702;23.314;2023-05-19T00:18:12;8.43;;;5.80;;
20910;SDS011;10615;42.702;23.314;2023-05-19T00:19:12;6.20;;;5.57;;
20910;SDS011;10615;42.702;23.314;2023-05-19T00:20:13;7.50;;;5.90;;
20910;SDS011;10615;42.702;23.314;2023-05-19T00:21:14;7.20;;;5.97;;
20910;SDS011;10615;42.702;23.314;2023-05-19T00:22:15;7.70;;;6.10;;
20910;SDS011;10615;42.702;23.314;2023-05-19T00:23:16;6.85;;;6.15;;
20910;SDS011;10615;42.702;23.314;2023-05-19T00:24:17;7.80;;;5.70;;
20910;SDS011;10615;42.702;23.314;2023-05-19T00:25:17;7.72;;;6.00;;
20910;SDS011;10615;42.702;23.314;2023-05-19T00:26:18;7.50;;;6.32;;
20910;SDS011;10615;42.702;23.314;2023-05-19T00:27:19;6.78;;;6.03;;
20910;SDS011;10615;42.702;23.314;2023-05-19T00:28:19;8.90;;;6.53;;
20910;SDS011;10615;42.702;23.314;2023-05-19T00:29:20;8.70;;;6.45;;
20910;SDS011;10615;42.702;23.314;2023-05-19T00:31:40;8.30;;;6.40;;
20910;SDS011;10615;42.702;23.314;2023-05-19T00:32:41;8.35;;;6.97;;
20910;SDS011;10615;42.702;23.314;2023-05-19T00:33:41;8.75;;;6.50;;
20910;SDS011;10615;42.702;23.314;2023-05-19T00:34:42;9.27;;;6.50;;
20910;SDS011;10615;42.702;23.314;2023-05-19T00:35:43;11.18;;;6.60;;
20910;SDS011;10615;42.702;23.314;2023-05-19T00:36:43;8.40;;;6.85;;
20910;SDS011;10615;42.702;23.314;2023-05-19T00:37:44;12.07;;;6.78;;
20910;SDS011;10615;42.702;23.314;2023-05-19T00:38:45;7.93;;;6.60;;
20910;SDS011;10615;42.702;23.314;2023-05-19T00:39:46;7.13;;;6.32;;
20910;SDS011;10615;42.702;23.314;2023-05-19T00:40:46;7.32;;;6.10;;
20910;SDS011;10615;42.702;23.314;2023-05-19T00:41:47;7.03;;;6.32;;
20910;SDS011;10615;42.702;23.314;2023-05-19T00:42:48;9.02;;;6.65;;
20910;SDS011;10615;42.702;23.314;2023-05-19T00:43:49;8.48;;;6.68;;
20910;SDS011;10615;42.702;23.314;2023-05-19T00:44:50;8.07;;;6.70;;
20910;SDS011;10615;42.702;23.314;2023-05-19T00:45:51;7.07;;;6.38;;
20910;SDS011;10615;42.702;23.314;2023-05-19T00:46:52;8.95;;;6.35;;
20910;SDS011;10615;42.702;23.314;2023-05-19T00:47:53;8.77;;;6.35;;
20910;SDS011;10615;42.702;23.314;2023-05-19T00:48:53;12.02;;;6.18;;
20910;SDS011;10615;42.702;23.314;2023-05-19T00:49:54;10.73;;;6.65;;
20910;SDS011;10615;42.702;23.314;2023-05-19T00:50:55;9.55;;;6.70;;
20910;SDS011;10615;42.702;23.314;2023-05-19T00:52:03;8.77;;;6.65;;
20910;SDS011;10615;42.702;23.314;2023-05-19T00:53:06;7.28;;;6.38;;
20910;SDS011;10615;42.702;23.314;2023-05-19T00:54:06;7.53;;;6.70;;
20910;SDS011;10615;42.702;23.314;2023-05-19T00:55:08;8.32;;;6.68;;
20910;SDS011;10615;42.702;23.314;2023-05-19T00:56:09;8.18;;;7.38;;
20910;SDS011;10615;42.702;23.314;2023-05-19T00:57:10;9.25;;;7.35;;
20910;SDS011;10615;42.702;23.314;2023-05-19T00:58:12;9.98;;;7.35;;
20910;SDS011;10615;42.702;23.314;2023-05-19T00:59:14;8.68;;;7.55;;
20910;SDS011;10615;42.702;23.314;2023-05-19T01:00:15;11.70;;;8.05;;
20910;SDS011;10615;42.702;23.314;2023-05-19T01:01:16;9.60;;;7.90;;
20910;SDS011;10615;42.702;23.314;2023-05-19T01:02:17;9.50;;;8.25;;
20910;SDS011;10615;42.702;23.314;2023-05-19T01:03:18;9.98;;;7.60;;
20910;SDS011;10615;42.702;23.314;2023-05-19T01:04:19;10.75;;;7.90;;
20910;SDS011;10615;42.702;23.314;2023-05-19T01:05:20;10.40;;;8.88;;
20910;SDS011;10615;42.702;23.314;2023-05-19T01:06:21;9.50;;;7.93;;
20910;SDS011;10615;42.702;23.314;2023-05-19T01:07:22;9.25;;;8.07;;
20910;SDS011;10615;42.702;23.314;2023-05-19T01:08:24;8.48;;;7.57;;
20910;SDS011;10615;42.702;23.314;2023-05-19T01:09:25;11.57;;;8.50;;
20910;SDS011;10615;42.702;23.314;2023-05-19T01:10:26;10.15;;;8.25;;
20910;SDS011;10615;42.702;23.314;2023-05-19T01:11:26;9.35;;;8.27;;
20910;SDS011;10615;42.702;23.314;2023-05-19T01:12:27;9.35;;;8.25;;
20910;SDS011;10615;42.702;23.314;2023-05-19T01:13:28;9.20;;;7.93;;
20910;SDS011;10615;42.702;23.314;2023-05-19T01:14:30;11.52;;;8.68;;
20910;SDS011;10615;42.702;23.314;2023-05-19T01:16:18;11.13;;;8.65;;
20910;SDS011;10615;42.702;23.314;2023-05-19T01:17:00;9.13;;;8.20;;
20910;SDS011;10615;42.702;23.314;2023-05-19T01:18:07;10.98;;;9.30;;
20910;SDS011;10615;42.702;23.314;2023-05-19T01:23:01;11.75;;;9.60;;
20910;SDS011;10615;42.702;23.314;2023-05-19T01:30:42;14.40;;;11.27;;
20910;SDS011;10615;42.702;23.314;2023-05-19T01:31:43;13.23;;;10.68;;
20910;SDS011;10615;42.702;23.314;2023-05-19T01:32:46;11.70;;;10.43;;
20910;SDS011;10615;42.702;23.314;2023-05-19T01:33:48;12.02;;;10.30;;
20910;SDS011;10615;42.702;23.314;2023-05-19T01:34:51;12.35;;;11.05;;
20910;SDS011;10615;42.702;23.314;2023-05-19T01:35:55;14.63;;;10.55;;
20910;SDS011;10615;42.702;23.314;2023-05-19T01:36:57;12.27;;;10.98;;
20910;SDS011;10615;42.702;23.314;2023-05-19T01:38:00;12.23;;;10.60;;
20910;SDS011;10615;42.702;23.314;2023-05-19T01:39:03;11.88;;;10.60;;
20910;SDS011;10615;42.702;23.314;2023-05-19T01:40:05;12.55;;;10.35;;
20910;SDS011;10615;42.702;23.314;2023-05-19T01:41:07;12.63;;;10.48;;
20910;SDS011;10615;42.702;23.314;2023-05-19T01:42:10;11.25;;;9.98;;
20910;SDS011;10615;42.702;23.314;2023-05-19T01:43:17;11.75;;;9.80;;
20910;SDS011;10615;42.702;23.314;2023-05-19T01:44:19;12.10;;;9.98;;
20910;SDS011;10615;42.702;23.314;2023-05-19T01:45:21;11.68;;;10.05;;
20910;SDS011;10615;42.702;23.314;2023-05-19T01:46:23;11.75;;;9.60;;
20910;SDS011;10615;42.702;23.314;2023-05-19T01:47:24;15.20;;;10.85;;
20910;SDS011;10615;42.702;23.314;2023-05-19T01:48:25;14.35;;;9.93;;
20910;SDS011;10615;42.702;23.314;2023-05-19T01:49:26;12.60;;;10.18;;
20910;SDS011;10615;42.702;23.314;2023-05-19T01:50:27;11.52;;;9.77;;
20910;SDS011;10615;42.702;23.314;2023-05-19T01:51:28;13.30;;;9.73;;
20910;SDS011;10615;42.702;23.314;2023-05-19T01:52:29;12.38;;;9.68;;
20910;SDS011;10615;42.702;23.314;2023-05-19T01:53:29;11.52;;;9.55;;
20910;SDS011;10615;42.702;23.314;2023-05-19T01:54:30;11.00;;;9.40;;
20910;SDS011;10615;42.702;23.314;2023-05-19T01:55:31;12.25;;;9.50;;
20910;SDS011;10615;42.702;23.314;2023-05-19T01:57:17;10.40;;;9.30;;
20910;SDS011;10615;42.702;23.314;2023-05-19T01:58:12;10.40;;;9.30;;
20910;SDS011;10615;42.702;23.314;2023-05-19T01:59:41;10.90;;;9.80;;
20910;SDS011;10615;42.702;23.314;2023-05-19T02:01:53;12.77;;;10.05;;
20910;SDS011;10615;42.702;23.314;2023-05-19T02:04:23;13.18;;;9.82;;
20910;SDS011;10615;42.702;23.314;2023-05-19T02:05:41;11.88;;;9.60;;
20910;SDS011;10615;42.702;23.314;2023-05-19T02:08:12;14.75;;;9.80;;
20910;SDS011;10615;42.702;23.314;2023-05-19T02:10:50;12.85;;;10.15;;
20910;SDS011;10615;42.702;23.314;2023-05-19T02:12:10;13.27;;;10.23;;
20910;SDS011;10615;42.702;23.314;2023-05-19T02:13:20;13.63;;;10.25;;
20910;SDS011;10615;42.702;23.314;2023-05-19T02:16:05;11.68;;;9.82;;
20910;SDS011;10615;42.702;23.314;2023-05-19T02:17:07;18.10;;;10.95;;
20910;SDS011;10615;42.702;23.314;2023-05-19T02:18:10;11.40;;;10.15;;
20910;SDS011;10615;42.702;23.314;2023-05-19T02:19:18;12.60;;;10.45;;
20910;SDS011;10615;42.702;23.314;2023-05-19T02:20:23;14.65;;;11.05;;
20910;SDS011;10615;42.702;23.314;2023-05-19T02:21:24;13.38;;;10.40;;
20910;SDS011;10615;42.702;23.314;2023-05-19T02:22:25;13.43;;;9.93;;
20910;SDS011;10615;42.702;23.314;2023-05-19T02:23:25;13.55;;;10.55;;
20910;SDS011;10615;42.702;23.314;2023-05-19T02:24:26;12.25;;;10.63;;
20910;SDS011;10615;42.702;23.314;2023-05-19T02:25:27;12.98;;;10.88;;
20910;SDS011;10615;42.702;23.314;2023-05-19T02:26:28;16.95;;;11.10;;
20910;SDS011;10615;42.702;23.314;2023-05-19T02:27:28;12.70;;;10.90;;
20910;SDS011;10615;42.702;23.314;2023-05-19T02:28:29;13.82;;;10.93;;
20910;SDS011;10615;42.702;23.314;2023-05-19T02:29:30;14.20;;;11.40;;
20910;SDS011;10615;42.702;23.314;2023-05-19T02:30:31;11.52;;;9.90;;
20910;SDS011;10615;42.702;23.314;2023-05-19T02:31:31;14.77;;;11.63;;
20910;SDS011;10615;42.702;23.314;2023-05-19T02:32:32;15.30;;;11.48;;
20910;SDS011;10615;42.702;23.314;2023-05-19T02:33:33;13.75;;;11.65;;
20910;SDS011;10615;42.702;23.314;2023-05-19T02:34:35;14.23;;;11.80;;
20910;SDS011;10615;42.702;23.314;2023-05-19T02:35:36;14.80;;;11.85;;
20910;SDS011;10615;42.702;23.314;2023-05-19T02:36:38;16.25;;;13.18;;
20910;SDS011;10615;42.702;23.314;2023-05-19T02:37:42;14.65;;;12.50;;
20910;SDS011;10615;42.702;23.314;2023-05-19T02:38:43;17.90;;;12.38;;
20910;SDS011;10615;42.702;23.314;2023-05-19T02:39:43;13.18;;;11.77;;
20910;SDS011;10615;42.702;23.314;2023-05-19T02:40:44;14.65;;;11.73;;
20910;SDS011;10615;42.702;23.314;2023-05-19T02:41:45;15.05;;;11.25;;
20910;SDS011;10615;42.702;23.314;2023-05-19T02:42:45;13.75;;;11.63;;
20910;SDS011;10615;42.702;23.314;2023-05-19T02:43:46;13.98;;;11.75;;
20910;SDS011;10615;42.702;23.314;2023-05-19T02:44:47;15.75;;;12.13;;
20910;SDS011;10615;42.702;23.314;2023-05-19T02:45:47;15.32;;;11.85;;
20910;SDS011;10615;42.702;23.314;2023-05-19T02:46:48;13.82;;;11.35;;
20910;SDS011;10615;42.702;23.314;2023-05-19T02:47:49;16.55;;;12.00;;
20910;SDS011;10615;42.702;23.314;2023-05-19T02:48:50;12.82;;;11.40;;
20910;SDS011;10615;42.702;23.314;2023-05-19T02:49:51;13.85;;;11.45;;
20910;SDS011;10615;42.702;23.314;2023-05-19T02:50:51;14.00;;;11.25;;
20910;SDS011;10615;42.702;23.314;2023-05-19T02:51:52;14.10;;;10.70;;
20910;SDS011;10615;42.702;23.314;2023-05-19T02:52:53;12.43;;;11.13;;
20910;SDS011;10615;42.702;23.314;2023-05-19T02:53:53;13.13;;;11.25;;
20910;SDS011;10615;42.702;23.314;2023-05-19T02:54:54;12.27;;;10.93;;
20910;SDS011;10615;42.702;23.314;2023-05-19T02:55:55;14.77;;;11.10;;
20910;SDS011;10615;42.702;23.314;2023-05-19T02:56:55;15.50;;;11.20;;
20910;SDS011;10615;42.702;23.314;2023-05-19T02:57:56;16.83;;;11.85;;
20910;SDS011;10615;42.702;23.314;2023-05-19T02:58:57;13.60;;;11.05;;
20910;SDS011;10615;42.702;23.314;2023-05-19T02:59:57;14.38;;;11.38;;
20910;SDS011;10615;42.702;23.314;2023-05-19T03:00:58;13.10;;;11.18;;
20910;SDS011;10615;42.702;23.314;2023-05-19T03:02:00;14.35;;;11.63;;
20910;SDS011;10615;42.702;23.314;2023-05-19T03:03:01;14.45;;;11.80;;
20910;SDS011;10615;42.702;23.314;2023-05-19T03:04:03;13.60;;;10.88;;
20910;SDS011;10615;42.702;23.314;2023-05-19T03:05:04;13.50;;;11.68;;
20910;SDS011;10615;42.702;23.314;2023-05-19T03:06:06;12.75;;;11.45;;
20910;SDS011;10615;42.702;23.314;2023-05-19T03:07:08;12.90;;;10.75;;
20910;SDS011;10615;42.702;23.314;2023-05-19T03:08:09;13.55;;;10.55;;
20910;SDS011;10615;42.702;23.314;2023-05-19T03:09:09;14.38;;;11.70;;
20910;SDS011;10615;42.702;23.314;2023-05-19T03:10:10;14.63;;;10.88;;
20910;SDS011;10615;42.702;23.314;2023-05-19T03:11:11;15.00;;;10.85;;
20910;SDS011;10615;42.702;23.314;2023-05-19T03:12:11;14.98;;;11.48;;
20910;SDS011;10615;42.702;23.314;2023-05-19T03:13:12;14.05;;;10.95;;
20910;SDS011;10615;42.702;23.314;2023-05-19T03:14:13;15.57;;;11.18;;
20910;SDS011;10615;42.702;23.314;2023-05-19T03:15:13;14.38;;;11.10;;
20910;SDS011;10615;42.702;23.314;2023-05-19T03:16:15;13.05;;;11.55;;
20910;SDS011;10615;42.702;23.314;2023-05-19T03:17:16;14.05;;;11.60;;
20910;SDS011;10615;42.702;23.314;2023-05-19T03:18:16;14.95;;;11.35;;
20910;SDS011;10615;42.702;23.314;2023-05-19T03:19:17;13.65;;;11.65;;
20910;SDS011;10615;42.702;23.314;2023-05-19T03:20:17;13.90;;;11.15;;
20910;SDS011;10615;42.702;23.314;2023-05-19T03:21:18;12.95;;;10.75;;
20910;SDS011;10615;42.702;23.314;2023-05-19T03:22:19;13.75;;;11.63;;
20910;SDS011;10615;42.702;23.314;2023-05-19T03:23:20;16.27;;;11.10;;
20910;SDS011;10615;42.702;23.314;2023-05-19T03:24:21;13.00;;;11.43;;
20910;SDS011;10615;42.702;23.314;2023-05-19T03:25:22;15.70;;;11.65;;
20910;SDS011;10615;42.702;23.314;2023-05-19T03:26:23;12.80;;;11.40;;
20910;SDS011;10615;42.702;23.314;2023-05-19T03:27:23;15.70;;;11.15;;
20910;SDS011;10615;42.702;23.314;2023-05-19T03:28:24;16.20;;;12.73;;
20910;SDS011;10615;42.702;23.314;2023-05-19T03:29:28;13.30;;;11.20;;
20910;SDS011;10615;42.702;23.314;2023-05-19T03:30:28;14.57;;;12.35;;
20910;SDS011;10615;42.702;23.314;2023-05-19T03:31:29;14.57;;;11.25;;
20910;SDS011;10615;42.702;23.314;2023-05-19T03:32:30;13.77;;;11.85;;
20910;SDS011;10615;42.702;23.314;2023-05-19T03:33:36;15.32;;;12.07;;
20910;SDS011;10615;42.702;23.314;2023-05-19T03:34:37;14.98;;;11.18;;
20910;SDS011;10615;42.702;23.314;2023-05-19T03:35:38;14.95;;;11.75;;
20910;SDS011;10615;42.702;23.314;2023-05-19T03:36:38;14.48;;;11.93;;
20910;SDS011;10615;42.702;23.314;2023-05-19T03:37:39;14.30;;;12.02;;
20910;SDS011;10615;42.702;23.314;2023-05-19T03:38:39;13.68;;;12.05;;
20910;SDS011;10615;42.702;23.314;2023-05-19T03:39:40;12.73;;;11.38;;
20910;SDS011;10615;42.702;23.314;2023-05-19T03:40:41;13.55;;;12.15;;
20910;SDS011;10615;42.702;23.314;2023-05-19T03:41:42;13.98;;;11.70;;
20910;SDS011;10615;42.702;23.314;2023-05-19T03:42:42;16.63;;;10.90;;
20910;SDS011;10615;42.702;23.314;2023-05-19T03:43:43;14.63;;;11.23;;
20910;SDS011;10615;42.702;23.314;2023-05-19T03:44:44;13.40;;;11.15;;
20910;SDS011;10615;42.702;23.314;2023-05-19T03:45:44;13.32;;;10.25;;
20910;SDS011;10615;42.702;23.314;2023-05-19T03:46:45;12.82;;;10.50;;
20910;SDS011;10615;42.702;23.314;2023-05-19T03:47:46;11.95;;;9.50;;
20910;SDS011;10615;42.702;23.314;2023-05-19T03:48:46;13.60;;;9.63;;
20910;SDS011;10615;42.702;23.314;2023-05-19T03:49:47;11.52;;;10.25;;
20910;SDS011;10615;42.702;23.314;2023-05-19T03:50:48;10.93;;;9.82;;
20910;SDS011;10615;42.702;23.314;2023-05-19T03:51:49;11.32;;;9.13;;
20910;SDS011;10615;42.702;23.314;2023-05-19T03:52:50;11.63;;;9.30;;
20910;SDS011;10615;42.702;23.314;2023-05-19T03:53:50;11.80;;;9.80;;
20910;SDS011;10615;42.702;23.314;2023-05-19T03:54:51;11.30;;;10.05;;
20910;SDS011;10615;42.702;23.314;2023-05-19T03:55:52;10.70;;;9.60;;
20910;SDS011;10615;42.702;23.314;2023-05-19T03:56:54;11.13;;;9.65;;
20910;SDS011;10615;42.702;23.314;2023-05-19T03:57:55;11.02;;;9.05;;
20910;SDS011;10615;42.702;23.314;2023-05-19T03:58:56;12.05;;;9.63;;
20910;SDS011;10615;42.702;23.314;2023-05-19T03:59:56;12.00;;;9.45;;
20910;SDS011;10615;42.702;23.314;2023-05-19T04:00:57;15.75;;;9.95;;
20910;SDS011;10615;42.702;23.314;2023-05-19T04:01:58;13.48;;;9.00;;
20910;SDS011;10615;42.702;23.314;2023-05-19T04:02:58;11.23;;;9.80;;
20910;SDS011;10615;42.702;23.314;2023-05-19T04:03:59;11.73;;;9.52;;
20910;SDS011;10615;42.702;23.314;2023-05-19T04:05:00;12.45;;;9.48;;
20910;SDS011;10615;42.702;23.314;2023-05-19T04:06:03;13.77;;;9.55;;
20910;SDS011;10615;42.702;23.314;2023-05-19T04:07:04;10.77;;;8.27;;
20910;SDS011;10615;42.702;23.314;2023-05-19T04:08:06;11.52;;;9.07;;
20910;SDS011;10615;42.702;23.314;2023-05-19T04:09:13;10.25;;;9.23;;
20910;SDS011;10615;42.702;23.314;2023-05-19T04:10:14;10.07;;;8.68;;
20910;SDS011;10615;42.702;23.314;2023-05-19T04:11:15;13.45;;;9.15;;
20910;SDS011;10615;42.702;23.314;2023-05-19T04:12:16;10.00;;;8.90;;
20910;SDS011;10615;42.702;23.314;2023-05-19T04:13:16;14.60;;;9.20;;
20910;SDS011;10615;42.702;23.314;2023-05-19T04:14:17;9.45;;;8.45;;
20910;SDS011;10615;42.702;23.314;2023-05-19T04:15:19;10.40;;;8.43;;
20910;SDS011;10615;42.702;23.314;2023-05-19T04:16:20;9.32;;;8.43;;
20910;SDS011;10615;42.702;23.314;2023-05-19T04:17:21;9.05;;;8.15;;
20910;SDS011;10615;42.702;23.314;2023-05-19T04:18:25;10.02;;;8.40;;
20910;SDS011;10615;42.702;23.314;2023-05-19T04:19:25;10.63;;;8.30;;
20910;SDS011;10615;42.702;23.314;2023-05-19T04:20:26;10.52;;;8.98;;
20910;SDS011;10615;42.702;23.314;2023-05-19T04:21:27;11.18;;;9.10;;
20910;SDS011;10615;42.702;23.314;2023-05-19T04:22:27;11.90;;;8.88;;
20910;SDS011;10615;42.702;23.314;2023-05-19T04:23:28;12.13;;;8.48;;
20910;SDS011;10615;42.702;23.314;2023-05-19T04:24:29;10.52;;;8.27;;
20910;SDS011;10615;42.702;23.314;2023-05-19T04:25:30;9.40;;;8.50;;
20910;SDS011;10615;42.702;23.314;2023-05-19T04:26:32;10.18;;;8.27;;
20910;SDS011;10615;42.702;23.314;2023-05-19T04:27:33;11.30;;;8.48;;
20910;SDS011;10615;42.702;23.314;2023-05-19T04:28:37;10.93;;;9.20;;
20910;SDS011;10615;42.702;23.314;2023-05-19T04:29:41;12.20;;;9.02;;
20910;SDS011;10615;42.702;23.314;2023-05-19T04:30:41;10.20;;;8.48;;
20910;SDS011;10615;42.702;23.314;2023-05-19T04:31:45;9.90;;;8.07;;
20910;SDS011;10615;42.702;23.314;2023-05-19T04:32:46;11.02;;;8.80;;
20910;SDS011;10615;42.702;23.314;2023-05-19T04:33:49;13.00;;;9.27;;
20910;SDS011;10615;42.702;23.314;2023-05-19T04:34:52;9.52;;;8.57;;
20910;SDS011;10615;42.702;23.314;2023-05-19T04:35:53;11.40;;;8.88;;
20910;SDS011;10615;42.702;23.314;2023-05-19T04:36:53;10.60;;;9.48;;
20910;SDS011;10615;42.702;23.314;2023-05-19T04:37:54;14.75;;;8.40;;
20910;SDS011;10615;42.702;23.314;2023-05-19T04:38:55;13.15;;;8.95;;
20910;SDS011;10615;42.702;23.314;2023-05-19T04:40:01;13.95;;;8.52;;
20910;SDS011;10615;42.702;23.314;2023-05-19T04:41:02;11.05;;;9.50;;
20910;SDS011;10615;42.702;23.314;2023-05-19T04:42:03;10.63;;;9.10;;
20910;SDS011;10615;42.702;23.314;2023-05-19T04:43:04;11.05;;;9.07;;
20910;SDS011;10615;42.702;23.314;2023-05-19T04:44:06;16.27;;;8.95;;
20910;SDS011;10615;42.702;23.314;2023-05-19T04:45:08;13.77;;;9.25;;
20910;SDS011;10615;42.702;23.314;2023-05-19T04:46:11;11.73;;;9.75;;
20910;SDS011;10615;42.702;23.314;2023-05-19T04:47:11;15.57;;;10.60;;
20910;SDS011;10615;42.702;23.314;2023-05-19T04:48:13;10.55;;;9.48;;
20910;SDS011;10615;42.702;23.314;2023-05-19T04:49:14;11.00;;;9.15;;
20910;SDS011;10615;42.702;23.314;2023-05-19T04:50:15;14.18;;;9.05;;
20910;SDS011;10615;42.702;23.314;2023-05-19T04:51:16;12.48;;;9.35;;
20910;SDS011;10615;42.702;23.314;2023-05-19T04:52:16;10.10;;;9.10;;
20910;SDS011;10615;42.702;23.314;2023-05-19T04:53:20;10.98;;;8.57;;
20910;SDS011;10615;42.702;23.314;2023-05-19T04:54:21;9.57;;;8.43;;
20910;SDS011;10615;42.702;23.314;2023-05-19T04:55:21;10.77;;;8.82;;
20910;SDS011;10615;42.702;23.314;2023-05-19T04:56:22;15.02;;;9.27;;
20910;SDS011;10615;42.702;23.314;2023-05-19T04:57:23;14.90;;;9.30;;
20910;SDS011;10615;42.702;23.314;2023-05-19T04:58:24;15.20;;;8.82;;
20910;SDS011;10615;42.702;23.314;2023-05-19T04:59:24;10.10;;;8.75;;
20910;SDS011;10615;42.702;23.314;2023-05-19T05:00:25;12.77;;;9.00;;
20910;SDS011;10615;42.702;23.314;2023-05-19T05:01:26;11.80;;;9.15;;
20910;SDS011;10615;42.702;23.314;2023-05-19T05:02:27;11.95;;;9.02;;
20910;SDS011;10615;42.702;23.314;2023-05-19T05:03:27;12.98;;;9.13;;
20910;SDS011;10615;42.702;23.314;2023-05-19T05:04:29;12.05;;;9.20;;
20910;SDS011;10615;42.702;23.314;2023-05-19T05:05:30;10.93;;;9.00;;
20910;SDS011;10615;42.702;23.314;2023-05-19T05:06:31;14.00;;;8.80;;
20910;SDS011;10615;42.702;23.314;2023-05-19T05:07:32;11.05;;;8.45;;
20910;SDS011;10615;42.702;23.314;2023-05-19T05:08:32;8.40;;;7.60;;
20910;SDS011;10615;42.702;23.314;2023-05-19T05:09:33;9.60;;;8.52;;
20910;SDS011;10615;42.702;23.314;2023-05-19T05:10:34;9.57;;;8.52;;
20910;SDS011;10615;42.702;23.314;2023-05-19T05:11:36;11.43;;;8.73;;
20910;SDS011;10615;42.702;23.314;2023-05-19T05:12:37;9.75;;;8.50;;
20910;SDS011;10615;42.702;23.314;2023-05-19T05:13:38;8.98;;;8.07;;
20910;SDS011;10615;42.702;23.314;2023-05-19T05:14:38;9.93;;;8.68;;
20910;SDS011;10615;42.702;23.314;2023-05-19T05:15:39;10.80;;;8.52;;
20910;SDS011;10615;42.702;23.314;2023-05-19T05:16:40;9.82;;;8.38;;
20910;SDS011;10615;42.702;23.314;2023-05-19T05:17:42;11.13;;;8.75;;
20910;SDS011;10615;42.702;23.314;2023-05-19T05:18:43;9.75;;;8.07;;
20910;SDS011;10615;42.702;23.314;2023-05-19T05:19:45;9.52;;;8.35;;
20910;SDS011;10615;42.702;23.314;2023-05-19T05:20:47;9.23;;;8.25;;
20910;SDS011;10615;42.702;23.314;2023-05-19T05:21:48;8.82;;;7.93;;
20910;SDS011;10615;42.702;23.314;2023-05-19T05:22:49;9.75;;;7.95;;
20910;SDS011;10615;42.702;23.314;2023-05-19T05:23:50;9.10;;;7.68;;
20910;SDS011;10615;42.702;23.314;2023-05-19T05:24:51;10.00;;;8.38;;
20910;SDS011;10615;42.702;23.314;2023-05-19T05:25:52;9.40;;;8.30;;
20910;SDS011;10615;42.702;23.314;2023-05-19T05:26:53;10.70;;;8.02;;
20910;SDS011;10615;42.702;23.314;2023-05-19T05:27:54;9.40;;;8.32;;
20910;SDS011;10615;42.702;23.314;2023-05-19T05:28:55;9.20;;;8.30;;
20910;SDS011;10615;42.702;23.314;2023-05-19T05:29:55;9.70;;;8.40;;
20910;SDS011;10615;42.702;23.314;2023-05-19T05:30:56;8.68;;;7.78;;
20910;SDS011;10615;42.702;23.314;2023-05-19T05:31:57;9.27;;;7.82;;
20910;SDS011;10615;42.702;23.314;2023-05-19T05:32:57;11.52;;;8.60;;
20910;SDS011;10615;42.702;23.314;2023-05-19T05:33:58;11.25;;;8.68;;
20910;SDS011;10615;42.702;23.314;2023-05-19T05:34:59;9.25;;;8.35;;
20910;SDS011;10615;42.702;23.314;2023-05-19T05:36:00;11.23;;;8.35;;
20910;SDS011;10615;42.702;23.314;2023-05-19T05:37:00;11.27;;;7.47;;
20910;SDS011;10615;42.702;23.314;2023-05-19T05:38:01;10.43;;;7.97;;
20910;SDS011;10615;42.702;23.314;2023-05-19T05:39:02;9.73;;;8.27;;
20910;SDS011;10615;42.702;23.314;2023-05-19T05:40:04;9.57;;;8.60;;
20910;SDS011;10615;42.702;23.314;2023-05-19T05:41:06;9.77;;;8.13;;
20910;SDS011;10615;42.702;23.314;2023-05-19T05:42:06;12.77;;;7.72;;
20910;SDS011;10615;42.702;23.314;2023-05-19T05:43:11;11.48;;;7.57;;
20910;SDS011;10615;42.702;23.314;2023-05-19T05:44:11;11.70;;;8.43;;
20910;SDS011;10615;42.702;23.314;2023-05-19T05:45:12;14.07;;;8.40;;
20910;SDS011;10615;42.702;23.314;2023-05-19T05:46:13;12.60;;;8.00;;
20910;SDS011;10615;42.702;23.314;2023-05-19T05:47:14;11.73;;;8.43;;
20910;SDS011;10615;42.702;23.314;2023-05-19T05:48:15;12.07;;;8.07;;
20910;SDS011;10615;42.702;23.314;2023-05-19T05:49:16;11.70;;;9.05;;
20910;SDS011;10615;42.702;23.314;2023-05-19T05:50:17;12.80;;;7.93;;
20910;SDS011;10615;42.702;23.314;2023-05-19T05:51:21;10.70;;;7.72;;
20910;SDS011;10615;42.702;23.314;2023-05-19T05:52:22;10.05;;;7.57;;
20910;SDS011;10615;42.702;23.314;2023-05-19T05:53:29;9.35;;;7.80;;
20910;SDS011;10615;42.702;23.314;2023-05-19T05:54:32;10.90;;;8.90;;
20910;SDS011;10615;42.702;23.314;2023-05-19T05:55:33;20.80;;;15.73;;
20910;SDS011;10615;42.702;23.314;2023-05-19T05:56:34;16.08;;;13.23;;
20910;SDS011;10615;42.702;23.314;2023-05-19T05:57:36;12.02;;;8.63;;
20910;SDS011;10615;42.702;23.314;2023-05-19T05:58:37;11.55;;;10.40;;
20910;SDS011;10615;42.702;23.314;2023-05-19T05:59:39;9.05;;;7.50;;
20910;SDS011;10615;42.702;23.314;2023-05-19T06:00:40;8.77;;;7.28;;
20910;SDS011;10615;42.702;23.314;2023-05-19T06:01:42;9.43;;;7.53;;
20910;SDS011;10615;42.702;23.314;2023-05-19T06:02:47;12.38;;;8.82;;
20910;SDS011;10615;42.702;23.314;2023-05-19T06:03:49;9.07;;;6.80;;
20910;SDS011;10615;42.702;23.314;2023-05-19T06:04:50;8.32;;;7.43;;
20910;SDS011;10615;42.702;23.314;2023-05-19T06:05:53;10.70;;;7.30;;
20910;SDS011;10615;42.702;23.314;2023-05-19T06:06:53;10.05;;;8.05;;
20910;SDS011;10615;42.702;23.314;2023-05-19T06:07:59;9.52;;;7.88;;
20910;SDS011;10615;42.702;23.314;2023-05-19T06:09:00;12.30;;;8.77;;
20910;SDS011;10615;42.702;23.314;2023-05-19T06:10:01;10.00;;;8.68;;
20910;SDS011;10615;42.702;23.314;2023-05-19T06:11:02;9.15;;;8.20;;
20910;SDS011;10615;42.702;23.314;2023-05-19T06:12:07;10.95;;;8.30;;
20910;SDS011;10615;42.702;23.314;2023-05-19T06:13:08;9.18;;;8.13;;
20910;SDS011;10615;42.702;23.314;2023-05-19T06:14:08;9.02;;;7.20;;
20910;SDS011;10615;42.702;23.314;2023-05-19T06:15:09;10.98;;;7.28;;
20910;SDS011;10615;42.702;23.314;2023-05-19T06:16:10;9.75;;;7.40;;
20910;SDS011;10615;42.702;23.314;2023-05-19T06:17:10;10.52;;;7.10;;
20910;SDS011;10615;42.702;23.314;2023-05-19T06:18:11;10.18;;;7.28;;
20910;SDS011;10615;42.702;23.314;2023-05-19T06:19:12;8.63;;;7.38;;
20910;SDS011;10615;42.702;23.314;2023-05-19T06:20:13;8.00;;;6.88;;